CSCL Long Beach — VRCZ7 — position and weather

sailwx.info

Track history (hours):
 
Tides and Currents Weather Stations Pressure Air Temp Water Temp Dewpoint Dewpoint Depression Visibility Wind Speed Wind Dir Waves Ship Positions

CSCL Long Beach

Last reported at 2015-May-22 21:32 UTC. Time now 2015-May-22 22:15 UTC.
Position N 39°27' W 000°19'.

Length 336.7 m; beam 45.6 m; draft 15 m.

Type: Cargo ship. MMSI: 477883900.

Date/timePositionNaut miles runAvg speedWind from/ knotsBaromVisibWave heightAir tempDewpointWater temp
2015-May-22 21:32N 39°27' W 000°19'0 0.0
2015-May-22 20:32N 39°27' W 000°19'0 0.0
2015-May-22 19:32N 39°27' W 000°19'0 0.0
2015-May-22 18:32N 39°27' W 000°19'0 0.0
2015-May-22 17:32N 39°27' W 000°19'0 0.0
2015-May-22 16:32N 39°27' W 000°19'0 0.0
2015-May-22 15:32N 39°27' W 000°19'0 0.0
2015-May-22 14:32N 39°27' W 000°19'0 0.0
2015-May-22 13:33N 39°27' W 000°19'3 3.5
2015-May-22 12:33N 39°24' W 000°16'1 0.6
2015-May-22 11:32N 39°24' W 000°15'0 0.0
2015-May-22 10:29N 39°24' W 000°15'0 0.1
2015-May-22 08:23N 39°24' W 000°15'0 0.1
2015-May-22 07:29N 39°24' W 000°15'0 0.0
2015-May-22 06:29N 39°23' W 000°15'0 0.1
2015-May-22 05:14N 39°23' W 000°15'0 0.1
2015-May-22 04:32N 39°24' W 000°15'0 0.0
2015-May-22 03:29N 39°23' W 000°15'0 0.1
2015-May-22 02:29N 39°23' W 000°15'0 0.0
2015-May-22 01:17N 39°23' W 000°15'0 0.1
2015-May-22 00:29N 39°23' W 000°15'0 0.1
2015-May-21 22:29N 39°24' W 000°16'1 0.6
2015-May-21 21:32N 39°24' W 000°16'7 6.9
2015-May-21 20:33N 39°27' W 000°08'32113.9
2015-May-20 21:33N 43°10' E 004°59'1313.1
2015-May-20 20:33N 43°23' E 004°57'5 4.8
2015-May-20 19:31N 43°25' E 004°51'0 0.0
2015-May-20 18:31N 43°25' E 004°51'0 0.0
2015-May-20 17:31N 43°25' E 004°51'0 0.0
2015-May-20 16:31N 43°25' E 004°51'0 0.0
2015-May-20 15:28N 43°25' E 004°51'0 0.0
2015-May-20 14:31N 43°25' E 004°51'0 0.0
2015-May-20 13:31N 43°25' E 004°51'0 0.0
2015-May-20 12:31N 43°25' E 004°51'0 0.0
2015-May-20 11:31N 43°25' E 004°51'0 0.0
2015-May-20 10:31N 43°25' E 004°51'0 0.0
2015-May-20 09:31N 43°25' E 004°51'0 0.0
2015-May-20 08:28N 43°25' E 004°51'0 0.0
2015-May-20 07:31N 43°25' E 004°51'0 0.0
2015-May-20 06:22N 43°25' E 004°51'0 0.0
2015-May-20 05:31N 43°25' E 004°51'0 0.0
2015-May-20 04:31N 43°25' E 004°51'0 0.0
2015-May-20 03:25N 43°25' E 004°51'0 0.0
2015-May-20 02:31N 43°25' E 004°51'0 0.0
2015-May-20 01:31N 43°25' E 004°51'0 0.0
2015-May-20 00:31N 43°25' E 004°51'0 0.0
2015-May-19 23:28N 43°25' E 004°51'0 0.0
2015-May-19 22:25N 43°25' E 004°51'0 0.0
2015-May-19 21:31N 43°25' E 004°51'0 0.0
2015-May-19 20:25N 43°25' E 004°51'0 0.0
2015-May-19 19:31N 43°25' E 004°51'0 0.0
2015-May-19 18:31N 43°25' E 004°51'0 0.0
2015-May-19 17:33N 43°25' E 004°51'4 4.3
2015-May-19 16:33N 43°23' E 004°56'1110.9
2015-May-19 15:34N 43°13' E 005°02'11316.1
2015-May-19 08:34N 42°44' E 007°31'1716.6
2015-May-19 07:33N 43°01' E 007°25'1514.9
2015-May-19 06:34N 43°15' E 007°24'1614.3
2015-May-19 05:26N 43°27' E 007°38'1714.6
2015-May-19 04:16N 43°38' E 007°56'1115.1
2015-May-19 03:33N 43°44' E 008°09'1515.1
2015-May-19 02:34N 43°56' E 008°22'1515.3
2015-May-19 01:34N 44°09' E 008°32'1514.9
2015-May-19 00:34N 44°22' E 008°43'5 4.4
2015-May-18 23:32N 44°25' E 008°48'0 0.0
2015-May-18 22:32N 44°25' E 008°48'0 0.0
2015-May-18 21:32N 44°25' E 008°48'0 0.0
2015-May-18 20:32N 44°25' E 008°48'0 0.0
2015-May-18 19:32N 44°25' E 008°48'0 0.0
2015-May-18 18:32N 44°25' E 008°48'0 0.0
2015-May-18 17:32N 44°25' E 008°48'0 0.0
2015-May-18 16:32N 44°25' E 008°48'0 0.0
2015-May-18 15:32N 44°25' E 008°48'0 0.0
2015-May-18 14:32N 44°25' E 008°48'0 0.0
2015-May-18 13:29N 44°25' E 008°48'0 0.0
2015-May-18 12:32N 44°25' E 008°48'0 0.0
2015-May-18 11:32N 44°25' E 008°48'0 0.0
2015-May-18 10:32N 44°25' E 008°48'0 0.0
2015-May-18 09:32N 44°25' E 008°48'0 0.0
2015-May-18 08:29N 44°25' E 008°48'0 0.0
2015-May-18 07:32N 44°25' E 008°48'0 0.0
2015-May-18 06:32N 44°25' E 008°48'0 0.0
2015-May-18 05:32N 44°25' E 008°48'0 0.0
2015-May-18 04:32N 44°25' E 008°48'0 0.0
2015-May-18 03:32N 44°25' E 008°48'0 0.0
2015-May-18 02:32N 44°25' E 008°48'0 0.0
2015-May-18 01:32N 44°25' E 008°48'0 0.0
2015-May-18 00:32N 44°25' E 008°48'0 0.0
2015-May-17 23:32N 44°25' E 008°48'0 0.0
2015-May-17 22:32N 44°25' E 008°48'0 0.0
2015-May-17 21:32N 44°25' E 008°48'0 0.0
2015-May-17 20:32N 44°25' E 008°48'0 0.0
2015-May-17 19:32N 44°25' E 008°48'0 0.0
2015-May-17 18:32N 44°25' E 008°48'0 0.0
2015-May-17 17:32N 44°25' E 008°48'0 0.0
2015-May-17 16:32N 44°25' E 008°48'0 0.0
2015-May-17 15:32N 44°25' E 008°48'0 0.0
2015-May-17 14:32N 44°25' E 008°48'0 0.0
2015-May-17 13:32N 44°25' E 008°48'0 0.0
2015-May-17 12:32N 44°25' E 008°48'2 1.9
2015-May-17 11:33N 44°25' E 008°45'2 1.8
2015-May-17 10:33N 44°23' E 008°44'2 1.7
2015-May-17 09:33N 44°22' E 008°44'7 7.3
2015-May-17 08:33N 44°17' E 008°52'1514.7
2015-May-17 07:33N 44°09' E 009°09'1414.5
2015-May-17 06:33N 44°01' E 009°26'1413.8
2015-May-17 05:33N 43°57' E 009°44'1010.2
2015-May-17 04:33N 44°06' E 009°51'1 0.7
2015-May-17 03:33N 44°06' E 009°51'0 0.0
2015-May-17 02:33N 44°06' E 009°51'0 0.0
2015-May-17 01:33N 44°06' E 009°51'0 0.0
2015-May-17 00:33N 44°06' E 009°51'0 0.0
2015-May-16 23:33N 44°06' E 009°51'0 0.0
2015-May-16 22:33N 44°06' E 009°51'0 0.0
2015-May-16 21:33N 44°06' E 009°51'0 0.0
2015-May-16 20:33N 44°06' E 009°51'0 0.0
2015-May-16 19:33N 44°06' E 009°51'0 0.0
2015-May-16 18:33N 44°06' E 009°51'0 0.0
2015-May-16 17:33N 44°06' E 009°51'0 0.0
2015-May-16 16:30N 44°06' E 009°51'0 0.0
2015-May-16 15:33N 44°06' E 009°51'0 0.0
2015-May-16 14:33N 44°06' E 009°51'0 0.0
2015-May-16 13:33N 44°06' E 009°51'0 0.0
2015-May-16 12:33N 44°06' E 009°51'0 0.0
2015-May-16 11:33N 44°06' E 009°51'0 0.0
2015-May-16 10:33N 44°06' E 009°51'0 0.0
2015-May-16 09:33N 44°06' E 009°51'0 0.0
2015-May-16 08:33N 44°06' E 009°51'0 0.0
2015-May-16 07:33N 44°06' E 009°51'0 0.0
2015-May-16 06:33N 44°06' E 009°51'0 0.0
2015-May-16 05:33N 44°06' E 009°51'0 0.0
2015-May-16 04:33N 44°06' E 009°51'0 0.0
2015-May-16 03:33N 44°06' E 009°51'0 0.0
2015-May-16 02:33N 44°06' E 009°51'0 0.0
2015-May-16 01:33N 44°06' E 009°51'0 0.0
2015-May-16 00:33N 44°06' E 009°51'0 0.0
2015-May-15 23:33N 44°06' E 009°51'0 0.0
2015-May-15 22:33N 44°06' E 009°51'0 0.0
2015-May-15 21:33N 44°06' E 009°51'0 0.0
2015-May-15 20:33N 44°06' E 009°51'0 0.0
2015-May-15 19:33N 44°06' E 009°51'0 0.0
2015-May-15 18:33N 44°06' E 009°51'0 0.0
2015-May-15 17:33N 44°06' E 009°51'0 0.0
2015-May-15 16:33N 44°06' E 009°51'4 3.7
2015-May-15 15:33N 44°03' E 009°52'1312.6
2015-May-15 14:33N 43°50' E 009°50'1615.6
2015-May-15 13:33N 43°35' E 009°47'1514.7
2015-May-15 12:33N 43°21' E 009°43'1515.5
2015-May-15 11:33N 43°06' E 009°38'3314.6
2015-May-15 09:19N 42°34' E 009°49'4114.9
2015-May-15 06:33N 42°01' E 010°22'1915.7
2015-May-15 05:21N 41°48' E 010°41'8815.2
2015-May-14 23:32N 40°49' E 012°09'3215.4
2015-May-14 21:28N 40°28' E 012°40'1515.6
2015-May-14 20:30N 40°18' E 012°55'1915.2
2015-May-14 19:16N 40°05' E 013°13'1115.4
2015-May-14 18:33N 39°58' E 013°23'1715.6
2015-May-14 17:29N 39°47' E 013°40'1415.7
2015-May-14 16:33N 39°37' E 013°54'1615.3
2015-May-14 15:31N 39°26' E 014°09'1515.0
2015-May-14 14:32N 39°16' E 014°23'5415.8
2015-May-14 11:06N 38°39' E 015°15'1015.1
2015-May-14 10:27N 38°32' E 015°23'1415.9
2015-May-14 09:33N 38°22' E 015°36'9613.6
2015-May-14 02:29N 37°18' E 017°07'3815.6
2015-May-14 00:04N 37°03' E 017°50'815.8
2015-May-13 23:33N 36°59' E 017°59'2416.0
2015-May-13 22:05N 36°49' E 018°26'10616.2
2015-May-13 15:33N 36°06' E 020°26'  
Track history (hours):
 
Tides and Currents Weather Stations Pressure Air Temp Water Temp Dewpoint Dewpoint Depression Visibility Wind Speed Wind Dir Waves Ship Positions

CSCL Long Beach

Last reported at 2015-May-22 21:32 UTC. Time now 2015-May-22 22:15 UTC.
Position N 39°27' W 000°19'.

Length 336.7 m; beam 45.6 m; draft 15 m.

Type: Cargo ship. MMSI: 477883900.

Date/timePositionNaut miles runAvg speedWind from/ knotsBaromVisibWave heightAir tempDewpointWater temp
2015-May-22 21:32N 39°27' W 000°19'0 0.0
2015-May-22 20:32N 39°27' W 000°19'0 0.0
2015-May-22 19:32N 39°27' W 000°19'0 0.0
2015-May-22 18:32N 39°27' W 000°19'0 0.0
2015-May-22 17:32N 39°27' W 000°19'0 0.0
2015-May-22 16:32N 39°27' W 000°19'0 0.0
2015-May-22 15:32N 39°27' W 000°19'0 0.0
2015-May-22 14:32N 39°27' W 000°19'0 0.0
2015-May-22 13:33N 39°27' W 000°19'3 3.5
2015-May-22 12:33N 39°24' W 000°16'1 0.6
2015-May-22 11:32N 39°24' W 000°15'0 0.0
2015-May-22 10:29N 39°24' W 000°15'0 0.1
2015-May-22 08:23N 39°24' W 000°15'0 0.1
2015-May-22 07:29N 39°24' W 000°15'0 0.0
2015-May-22 06:29N 39°23' W 000°15'0 0.1
2015-May-22 05:14N 39°23' W 000°15'0 0.1
2015-May-22 04:32N 39°24' W 000°15'0 0.0
2015-May-22 03:29N 39°23' W 000°15'0 0.1
2015-May-22 02:29N 39°23' W 000°15'0 0.0
2015-May-22 01:17N 39°23' W 000°15'0 0.1
2015-May-22 00:29N 39°23' W 000°15'0 0.1
2015-May-21 22:29N 39°24' W 000°16'1 0.6
2015-May-21 21:32N 39°24' W 000°16'7 6.9
2015-May-21 20:33N 39°27' W 000°08'32113.9
2015-May-20 21:33N 43°10' E 004°59'1313.1
2015-May-20 20:33N 43°23' E 004°57'5 4.8
2015-May-20 19:31N 43°25' E 004°51'0 0.0
2015-May-20 18:31N 43°25' E 004°51'0 0.0
2015-May-20 17:31N 43°25' E 004°51'0 0.0
2015-May-20 16:31N 43°25' E 004°51'0 0.0
2015-May-20 15:28N 43°25' E 004°51'0 0.0
2015-May-20 14:31N 43°25' E 004°51'0 0.0
2015-May-20 13:31N 43°25' E 004°51'0 0.0
2015-May-20 12:31N 43°25' E 004°51'0 0.0
2015-May-20 11:31N 43°25' E 004°51'0 0.0
2015-May-20 10:31N 43°25' E 004°51'0 0.0
2015-May-20 09:31N 43°25' E 004°51'0 0.0
2015-May-20 08:28N 43°25' E 004°51'0 0.0
2015-May-20 07:31N 43°25' E 004°51'0 0.0
2015-May-20 06:22N 43°25' E 004°51'0 0.0
2015-May-20 05:31N 43°25' E 004°51'0 0.0
2015-May-20 04:31N 43°25' E 004°51'0 0.0
2015-May-20 03:25N 43°25' E 004°51'0 0.0
2015-May-20 02:31N 43°25' E 004°51'0 0.0
2015-May-20 01:31N 43°25' E 004°51'0 0.0
2015-May-20 00:31N 43°25' E 004°51'0 0.0
2015-May-19 23:28N 43°25' E 004°51'0 0.0
2015-May-19 22:25N 43°25' E 004°51'0 0.0
2015-May-19 21:31N 43°25' E 004°51'0 0.0
2015-May-19 20:25N 43°25' E 004°51'0 0.0
2015-May-19 19:31N 43°25' E 004°51'0 0.0
2015-May-19 18:31N 43°25' E 004°51'0 0.0
2015-May-19 17:33N 43°25' E 004°51'4 4.3
2015-May-19 16:33N 43°23' E 004°56'1110.9
2015-May-19 15:34N 43°13' E 005°02'11316.1
2015-May-19 08:34N 42°44' E 007°31'1716.6
2015-May-19 07:33N 43°01' E 007°25'1514.9
2015-May-19 06:34N 43°15' E 007°24'1614.3
2015-May-19 05:26N 43°27' E 007°38'1714.6
2015-May-19 04:16N 43°38' E 007°56'1115.1
2015-May-19 03:33N 43°44' E 008°09'1515.1
2015-May-19 02:34N 43°56' E 008°22'1515.3
2015-May-19 01:34N 44°09' E 008°32'1514.9
2015-May-19 00:34N 44°22' E 008°43'5 4.4
2015-May-18 23:32N 44°25' E 008°48'0 0.0
2015-May-18 22:32N 44°25' E 008°48'0 0.0
2015-May-18 21:32N 44°25' E 008°48'0 0.0
2015-May-18 20:32N 44°25' E 008°48'0 0.0
2015-May-18 19:32N 44°25' E 008°48'0 0.0
2015-May-18 18:32N 44°25' E 008°48'0 0.0
2015-May-18 17:32N 44°25' E 008°48'0 0.0
2015-May-18 16:32N 44°25' E 008°48'0 0.0
2015-May-18 15:32N 44°25' E 008°48'0 0.0
2015-May-18 14:32N 44°25' E 008°48'0 0.0
2015-May-18 13:29N 44°25' E 008°48'0 0.0
2015-May-18 12:32N 44°25' E 008°48'0 0.0
2015-May-18 11:32N 44°25' E 008°48'0 0.0
2015-May-18 10:32N 44°25' E 008°48'0 0.0
2015-May-18 09:32N 44°25' E 008°48'0 0.0
2015-May-18 08:29N 44°25' E 008°48'0 0.0
2015-May-18 07:32N 44°25' E 008°48'0 0.0
2015-May-18 06:32N 44°25' E 008°48'0 0.0
2015-May-18 05:32N 44°25' E 008°48'0 0.0
2015-May-18 04:32N 44°25' E 008°48'0 0.0
2015-May-18 03:32N 44°25' E 008°48'0 0.0
2015-May-18 02:32N 44°25' E 008°48'0 0.0
2015-May-18 01:32N 44°25' E 008°48'0 0.0
2015-May-18 00:32N 44°25' E 008°48'0 0.0
2015-May-17 23:32N 44°25' E 008°48'0 0.0
2015-May-17 22:32N 44°25' E 008°48'0 0.0
2015-May-17 21:32N 44°25' E 008°48'0 0.0
2015-May-17 20:32N 44°25' E 008°48'0 0.0
2015-May-17 19:32N 44°25' E 008°48'0 0.0
2015-May-17 18:32N 44°25' E 008°48'0 0.0
2015-May-17 17:32N 44°25' E 008°48'0 0.0
2015-May-17 16:32N 44°25' E 008°48'0 0.0
2015-May-17 15:32N 44°25' E 008°48'0 0.0
2015-May-17 14:32N 44°25' E 008°48'0 0.0
2015-May-17 13:32N 44°25' E 008°48'0 0.0
2015-May-17 12:32N 44°25' E 008°48'2 1.9
2015-May-17 11:33N 44°25' E 008°45'2 1.8
2015-May-17 10:33N 44°23' E 008°44'2 1.7
2015-May-17 09:33N 44°22' E 008°44'7 7.3
2015-May-17 08:33N 44°17' E 008°52'1514.7
2015-May-17 07:33N 44°09' E 009°09'1414.5
2015-May-17 06:33N 44°01' E 009°26'1413.8
2015-May-17 05:33N 43°57' E 009°44'1010.2
2015-May-17 04:33N 44°06' E 009°51'1 0.7
2015-May-17 03:33N 44°06' E 009°51'0 0.0
2015-May-17 02:33N 44°06' E 009°51'0 0.0
2015-May-17 01:33N 44°06' E 009°51'0 0.0
2015-May-17 00:33N 44°06' E 009°51'0 0.0
2015-May-16 23:33N 44°06' E 009°51'0 0.0
2015-May-16 22:33N 44°06' E 009°51'0 0.0
2015-May-16 21:33N 44°06' E 009°51'0 0.0
2015-May-16 20:33N 44°06' E 009°51'0 0.0
2015-May-16 19:33N 44°06' E 009°51'0 0.0
2015-May-16 18:33N 44°06' E 009°51'0 0.0
2015-May-16 17:33N 44°06' E 009°51'0 0.0
2015-May-16 16:30N 44°06' E 009°51'0 0.0
2015-May-16 15:33N 44°06' E 009°51'0 0.0
2015-May-16 14:33N 44°06' E 009°51'0 0.0
2015-May-16 13:33N 44°06' E 009°51'0 0.0
2015-May-16 12:33N 44°06' E 009°51'0 0.0
2015-May-16 11:33N 44°06' E 009°51'0 0.0
2015-May-16 10:33N 44°06' E 009°51'0 0.0
2015-May-16 09:33N 44°06' E 009°51'0 0.0
2015-May-16 08:33N 44°06' E 009°51'0 0.0
2015-May-16 07:33N 44°06' E 009°51'0 0.0
2015-May-16 06:33N 44°06' E 009°51'0 0.0
2015-May-16 05:33N 44°06' E 009°51'0 0.0
2015-May-16 04:33N 44°06' E 009°51'0 0.0
2015-May-16 03:33N 44°06' E 009°51'0 0.0
2015-May-16 02:33N 44°06' E 009°51'0 0.0
2015-May-16 01:33N 44°06' E 009°51'0 0.0
2015-May-16 00:33N 44°06' E 009°51'0 0.0
2015-May-15 23:33N 44°06' E 009°51'0 0.0
2015-May-15 22:33N 44°06' E 009°51'0 0.0
2015-May-15 21:33N 44°06' E 009°51'0 0.0
2015-May-15 20:33N 44°06' E 009°51'0 0.0
2015-May-15 19:33N 44°06' E 009°51'0 0.0
2015-May-15 18:33N 44°06' E 009°51'0 0.0
2015-May-15 17:33N 44°06' E 009°51'0 0.0
2015-May-15 16:33N 44°06' E 009°51'4 3.7
2015-May-15 15:33N 44°03' E 009°52'1312.6
2015-May-15 14:33N 43°50' E 009°50'1615.6
2015-May-15 13:33N 43°35' E 009°47'1514.7
2015-May-15 12:33N 43°21' E 009°43'1515.5
2015-May-15 11:33N 43°06' E 009°38'3314.6
2015-May-15 09:19N 42°34' E 009°49'4114.9
2015-May-15 06:33N 42°01' E 010°22'1915.7
2015-May-15 05:21N 41°48' E 010°41'8815.2
2015-May-14 23:32N 40°49' E 012°09'3215.4
2015-May-14 21:28N 40°28' E 012°40'1515.6
2015-May-14 20:30N 40°18' E 012°55'1915.2
2015-May-14 19:16N 40°05' E 013°13'1115.4
2015-May-14 18:33N 39°58' E 013°23'1715.6
2015-May-14 17:29N 39°47' E 013°40'1415.7
2015-May-14 16:33N 39°37' E 013°54'1615.3
2015-May-14 15:31N 39°26' E 014°09'1515.0
2015-May-14 14:32N 39°16' E 014°23'5415.8
2015-May-14 11:06N 38°39' E 015°15'1015.1
2015-May-14 10:27N 38°32' E 015°23'1415.9
2015-May-14 09:33N 38°22' E 015°36'9613.6
2015-May-14 02:29N 37°18' E 017°07'3815.6
2015-May-14 00:04N 37°03' E 017°50'815.8
2015-May-13 23:33N 36°59' E 017°59'2416.0
2015-May-13 22:05N 36°49' E 018°26'10616.2
2015-May-13 15:33N 36°06' E 020°26'  

Dump ship's entire track history